Time;durP1;ratioP1;P1;durP2;ratioP2;P2;SDS_P1;SDS_P2;PMS_P1;PMS_P2;Temp;Humidity;BMP_temperature;BMP_pressure;BME280_temperature;BME280_humidity;BME280_pressure;Samples;Min_cycle;Max_cycle;Signal;HPM_P1;HPM_P2
2023/04/29 00:01:28;;;;;;;;;;;12.70;99.90;;;;;;4946518;28;19911;-74
2023/04/29 00:03:54;;;;;;;;;;;12.70;99.90;;;;;;4942442;28;19925;-74
2023/04/29 00:06:20;;;;;;;;;;;12.80;99.90;;;;;;4941078;29;19914;-77
2023/04/29 00:08:45;;;;;;;;;;;12.70;99.90;;;;;;4936570;29;19961;-74
2023/04/29 00:11:11;;;;;;;;;;;12.80;99.90;;;;;;4945482;29;19954;-74
2023/04/29 00:13:39;;;;;;;;;;;12.70;99.90;;;;;;4954967;29;20394;-73
2023/04/29 00:16:04;;;;;;;;;;;12.80;99.90;;;;;;4956057;29;19911;-74
2023/04/29 00:18:31;;;;;;;;;;;12.70;99.90;;;;;;4954440;29;20324;-75
2023/04/29 00:20:56;;;;;;;;;;;12.70;99.90;;;;;;4945261;28;20862;-77
2023/04/29 00:23:22;;;;;;;;;;;12.70;99.90;;;;;;4951508;28;19911;-74
2023/04/29 00:25:47;;;;;;;;;;;12.60;99.90;;;;;;4953896;29;20052;-75
2023/04/29 00:28:13;;;;;;;;;;;12.60;99.90;;;;;;4955055;29;19991;-75
2023/04/29 00:30:38;;;;;;;;;;;12.50;99.90;;;;;;4937944;29;19910;-75
2023/04/29 00:33:03;;;;;;;;;;;12.50;99.90;;;;;;4955302;29;19910;-75
2023/04/29 00:35:29;;;;;;;;;;;12.40;99.90;;;;;;4955173;29;19910;-73
2023/04/29 00:37:54;;;;;;;;;;;12.40;99.90;;;;;;4955227;29;19993;-75
2023/04/29 00:40:20;;;;;;;;;;;12.40;99.90;;;;;;4954950;29;19914;-77
2023/04/29 00:42:45;;;;;;;;;;;12.40;99.90;;;;;;4948284;28;19989;-75
2023/04/29 00:45:11;;;;;;;;;;;12.40;99.90;;;;;;4953582;29;19918;-75
2023/04/29 00:47:37;;;;;;;;;;;12.40;99.90;;;;;;4947147;29;19925;-74
2023/04/29 00:50:03;;;;;;;;;;;12.30;99.90;;;;;;4950575;29;19914;-73
2023/04/29 00:52:30;;;;;;;;;;;12.30;99.90;;;;;;4954194;29;19933;-74
2023/04/29 00:54:56;;;;;;;;;;;12.30;99.90;;;;;;4955257;29;19949;-75
2023/04/29 00:57:21;;;;;;;;;;;12.30;99.90;;;;;;4953718;29;20376;-76
2023/04/29 00:59:47;;;;;;;;;;;12.30;99.90;;;;;;4953067;28;19918;-76
2023/04/29 01:02:13;;;;;;;;;;;12.30;99.90;;;;;;4949955;28;19973;-73
2023/04/29 01:04:38;;;;;;;;;;;12.30;99.90;;;;;;4945922;28;19969;-76
2023/04/29 01:07:05;;;;;;;;;;;12.40;99.90;;;;;;4946029;28;19910;-77
2023/04/29 01:09:36;;;;;;;;;;;12.40;99.90;;;;;;4949054;28;20432;-75
2023/04/29 01:12:28;;;;;;;;;;;12.30;99.90;;;;;;4949383;29;19969;-75
2023/04/29 01:14:59;;;;;;;;;;;12.30;99.90;;;;;;4923965;29;19937;-73
2023/04/29 01:17:29;;;;;;;;;;;12.30;99.90;;;;;;4953540;29;19917;-74
2023/04/29 01:19:55;;;;;;;;;;;12.20;99.90;;;;;;4955131;29;19911;-75
2023/04/29 01:22:21;;;;;;;;;;;12.20;99.90;;;;;;4950023;29;19911;-79
2023/04/29 01:24:48;;;;;;;;;;;12.20;99.90;;;;;;4954729;29;19949;-73
2023/04/29 01:27:17;;;;;;;;;;;12.20;99.90;;;;;;4954034;29;19921;-74
2023/04/29 01:29:50;;;;;;;;;;;12.10;99.90;;;;;;4947884;28;19922;-74
2023/04/29 01:32:25;;;;;;;;;;;12.10;99.90;;;;;;4927480;29;19987;-74
2023/04/29 01:35:23;;;;;;;;;;;12.10;99.90;;;;;;4952767;29;19954;-74
2023/04/29 01:37:56;;;;;;;;;;;12.10;99.90;;;;;;4909555;29;19918;-74
2023/04/29 01:40:26;;;;;;;;;;;12.00;99.90;;;;;;4953852;29;19914;-75
2023/04/29 01:42:58;;;;;;;;;;;12.00;99.90;;;;;;4953714;29;19926;-74
2023/04/29 01:45:24;;;;;;;;;;;12.00;99.90;;;;;;4953746;29;19922;-74
2023/04/29 01:47:51;;;;;;;;;;;12.00;99.90;;;;;;4953689;29;19988;-74
2023/04/29 01:50:17;;;;;;;;;;;12.00;99.90;;;;;;4954376;29;19914;-77
2023/04/29 01:52:42;;;;;;;;;;;12.00;99.90;;;;;;4953444;29;19911;-74
2023/04/29 01:55:09;;;;;;;;;;;12.00;99.90;;;;;;4948051;28;20002;-75
2023/04/29 01:57:35;;;;;;;;;;;12.00;99.90;;;;;;4944220;29;20360;-75
2023/04/29 02:00:01;;;;;;;;;;;12.00;99.90;;;;;;4953861;29;19962;-75
2023/04/29 02:02:26;;;;;;;;;;;11.90;99.90;;;;;;4953629;29;19906;-76
2023/04/29 02:04:52;;;;;;;;;;;11.90;99.90;;;;;;4954073;29;19965;-73
2023/04/29 02:07:17;;;;;;;;;;;11.90;99.90;;;;;;4953758;29;19918;-79
2023/04/29 02:09:43;;;;;;;;;;;11.90;99.90;;;;;;4953679;29;19988;-75
2023/04/29 02:12:08;;;;;;;;;;;11.80;99.90;;;;;;4953836;29;19949;-75
2023/04/29 02:14:34;;;;;;;;;;;11.80;99.90;;;;;;4947746;28;20327;-75
2023/04/29 02:17:00;;;;;;;;;;;11.80;99.90;;;;;;4946538;28;19918;-75
2023/04/29 02:19:25;;;;;;;;;;;11.80;99.90;;;;;;4953287;29;19911;-74
2023/04/29 02:21:51;;;;;;;;;;;11.70;99.90;;;;;;4951712;29;19921;-74
2023/04/29 02:24:17;;;;;;;;;;;11.70;99.90;;;;;;4953423;29;19954;-73
2023/04/29 02:26:42;;;;;;;;;;;11.70;99.90;;;;;;4953288;29;19934;-73
2023/04/29 02:29:08;;;;;;;;;;;11.70;99.90;;;;;;4953741;29;19918;-73
2023/04/29 02:31:33;;;;;;;;;;;11.70;99.90;;;;;;4953080;29;19915;-74
2023/04/29 02:33:59;;;;;;;;;;;11.70;99.90;;;;;;4954089;29;19915;-73
2023/04/29 02:36:25;;;;;;;;;;;11.60;99.90;;;;;;4952259;29;19945;-74
2023/04/29 02:38:53;;;;;;;;;;;11.60;99.90;;;;;;4930464;29;19910;-73
2023/04/29 02:41:19;;;;;;;;;;;11.50;99.90;;;;;;4951782;29;19994;-79
2023/04/29 02:43:45;;;;;;;;;;;11.50;99.90;;;;;;4947479;29;19997;-74
2023/04/29 02:46:10;;;;;;;;;;;11.50;99.90;;;;;;4953358;29;20320;-76
2023/04/29 02:48:36;;;;;;;;;;;11.40;99.90;;;;;;4955828;28;19914;-73
2023/04/29 02:51:02;;;;;;;;;;;11.40;99.90;;;;;;4957714;29;19919;-73
2023/04/29 02:53:27;;;;;;;;;;;11.40;99.90;;;;;;4956774;29;20356;-74
2023/04/29 02:55:53;;;;;;;;;;;11.40;99.90;;;;;;4958233;29;20284;-73
2023/04/29 02:58:18;;;;;;;;;;;11.30;99.90;;;;;;4955506;28;19938;-78
2023/04/29 03:00:44;;;;;;;;;;;;;;;;;;4956286;28;19980;-73
2023/04/29 03:03:10;;;;;;;;;;;;;;;;;;4955995;28;20451;-73
2023/04/29 03:05:36;;;;;;;;;;;;;;;;;;4957671;29;19993;-74
2023/04/29 03:08:03;;;;;;;;;;;;;;;;;;4956738;29;19918;-74
2023/04/29 03:10:29;;;;;;;;;;;;;;;;;;4956705;29;19925;-74
2023/04/29 03:12:54;;;;;;;;;;;;;;;;;;4956963;29;19910;-74
2023/04/29 03:15:20;;;;;;;;;;;;;;;;;;4959839;29;19915;-78
2023/04/29 03:17:46;;;;;;;;;;;;;;;;;;4963573;28;19914;-76
2023/04/29 03:20:12;;;;;;;;;;;;;;;;;;4966154;29;19914;-76
2023/04/29 03:22:37;;;;;;;;;;;11.10;99.90;;;;;;4967177;29;19937;-74
2023/04/29 03:25:03;;;;;;;;;;;11.10;99.90;;;;;;4970337;29;19910;-75
2023/04/29 03:27:29;;;;;;;;;;;11.00;99.90;;;;;;4966973;29;20356;-74
2023/04/29 03:29:55;;;;;;;;;;;10.90;99.90;;;;;;4942144;29;19915;-74
2023/04/29 03:32:21;;;;;;;;;;;10.90;99.90;;;;;;4958315;29;19910;-80
2023/04/29 03:34:46;;;;;;;;;;;10.80;99.90;;;;;;4958542;29;19973;-73
2023/04/29 03:37:12;;;;;;;;;;;10.80;99.90;;;;;;4948112;28;20653;-76
2023/04/29 03:39:37;;;;;;;;;;;10.80;99.90;;;;;;4951956;29;19966;-73
2023/04/29 03:42:03;;;;;;;;;;;10.70;99.90;;;;;;4950798;29;19993;-73
2023/04/29 03:44:29;;;;;;;;;;;10.70;99.90;;;;;;4956087;29;20393;-74
2023/04/29 03:46:54;;;;;;;;;;;10.70;99.90;;;;;;4955771;29;19911;-73
2023/04/29 03:49:20;;;;;;;;;;;10.70;99.90;;;;;;4955941;29;19925;-78
2023/04/29 03:51:46;;;;;;;;;;;10.70;99.90;;;;;;4956165;29;20360;-75
2023/04/29 03:54:12;;;;;;;;;;;10.60;99.90;;;;;;4956488;29;20000;-73
2023/04/29 03:56:37;;;;;;;;;;;10.60;99.90;;;;;;4951338;28;19918;-76
2023/04/29 03:59:03;;;;;;;;;;;10.60;99.90;;;;;;4931520;29;19914;-73
2023/04/29 04:01:28;;;;;;;;;;;10.50;99.90;;;;;;4945860;29;19918;-72
2023/04/29 04:03:53;;;;;;;;;;;10.50;99.90;;;;;;4937251;29;19918;-72
2023/04/29 04:06:19;;;;;;;;;;;10.40;99.90;;;;;;4937257;29;19914;-77
2023/04/29 04:08:45;;;;;;;;;;;10.40;99.90;;;;;;4936848;29;19910;-73
2023/04/29 04:11:13;;;;;;;;;;;10.40;99.90;;;;;;4946302;29;19965;-72
2023/04/29 04:13:42;;;;;;;;;;;10.40;99.90;;;;;;4954723;29;20406;-72
2023/04/29 04:16:09;;;;;;;;;;;10.30;99.90;;;;;;4955920;29;20009;-72
2023/04/29 04:18:35;;;;;;;;;;;10.30;99.90;;;;;;4948531;28;19919;-73
2023/04/29 04:21:04;;;;;;;;;;;10.30;99.90;;;;;;4953139;29;19914;-75
2023/04/29 04:23:30;;;;;;;;;;;10.30;99.90;;;;;;4954308;29;20311;-75
2023/04/29 04:25:56;;;;;;;;;;;10.30;99.90;;;;;;4956257;29;19911;-74
2023/04/29 04:28:22;;;;;;;;;;;10.30;99.90;;;;;;4954778;29;20286;-75
2023/04/29 04:30:47;;;;;;;;;;;10.30;99.90;;;;;;4955768;29;19918;-74
2023/04/29 04:33:13;;;;;;;;;;;10.30;99.90;;;;;;4938091;29;19957;-74
2023/04/29 04:35:38;;;;;;;;;;;10.30;99.90;;;;;;4946252;28;20087;-72
2023/04/29 04:38:04;;;;;;;;;;;10.30;99.90;;;;;;4953176;29;20278;-72
2023/04/29 04:40:29;;;;;;;;;;;10.30;99.90;;;;;;4954329;29;20378;-72
2023/04/29 04:42:55;;;;;;;;;;;10.30;99.90;;;;;;4955051;29;19917;-71
2023/04/29 04:45:20;;;;;;;;;;;10.40;99.90;;;;;;4954999;29;19917;-78
2023/04/29 04:47:46;;;;;;;;;;;10.30;99.90;;;;;;4954707;29;19915;-73
2023/04/29 04:50:12;;;;;;;;;;;10.40;99.90;;;;;;4955855;29;19918;-71
2023/04/29 04:52:37;;;;;;;;;;;10.30;99.90;;;;;;4953944;29;19998;-72
2023/04/29 04:55:03;;;;;;;;;;;10.30;99.90;;;;;;4948288;28;19910;-71
2023/04/29 04:57:28;;;;;;;;;;;10.30;99.90;;;;;;4946109;29;19911;-72
2023/04/29 04:59:54;;;;;;;;;;;10.20;99.90;;;;;;4950719;29;20650;-73
2023/04/29 05:02:19;;;;;;;;;;;10.20;99.90;;;;;;4949620;29;19919;-78
2023/04/29 05:04:45;;;;;;;;;;;10.20;99.90;;;;;;4932193;29;19918;-73
2023/04/29 05:07:10;;;;;;;;;;;10.20;99.90;;;;;;4934822;29;19918;-72
2023/04/29 05:09:36;;;;;;;;;;;10.20;99.90;;;;;;4946892;29;19914;-73
2023/04/29 05:12:01;;;;;;;;;;;10.30;99.90;;;;;;4945644;28;20382;-73
2023/04/29 05:14:27;;;;;;;;;;;10.30;99.90;;;;;;4945470;28;19914;-72
2023/04/29 05:16:57;;;;;;;;;;;10.30;99.90;;;;;;4952080;29;19973;-72
2023/04/29 05:19:22;;;;;;;;;;;10.40;99.90;;;;;;4944539;29;19941;-73
2023/04/29 05:21:47;;;;;;;;;;;10.60;99.90;;;;;;4948764;29;20376;-72
2023/04/29 05:24:14;;;;;;;;;;;10.80;99.90;;;;;;4951198;29;19910;-72
2023/04/29 05:26:40;;;;;;;;;;;10.90;99.90;;;;;;4932873;29;20021;-72
2023/04/29 05:29:06;;;;;;;;;;;11.00;99.90;;;;;;4950793;29;19937;-73
2023/04/29 05:31:32;;;;;;;;;;;11.10;99.90;;;;;;4945179;28;20371;-73
2023/04/29 05:33:57;;;;;;;;;;;11.30;99.90;;;;;;4951035;29;20265;-73
2023/04/29 05:36:23;;;;;;;;;;;11.40;99.90;;;;;;4945906;28;19910;-74
2023/04/29 05:38:49;;;;;;;;;;;11.60;99.90;;;;;;4936341;29;20348;-73
2023/04/29 05:41:14;;;;;;;;;;;11.70;99.90;;;;;;4950160;29;19911;-74
2023/04/29 05:43:40;;;;;;;;;;;11.90;99.90;;;;;;4934904;29;19913;-73
2023/04/29 05:46:05;;;;;;;;;;;12.10;99.90;;;;;;4934776;29;20009;-70
2023/04/29 05:48:31;;;;;;;;;;;12.30;99.90;;;;;;4948398;29;20001;-72
2023/04/29 05:50:57;;;;;;;;;;;12.50;99.90;;;;;;4946204;28;19929;-74
2023/04/29 05:53:22;;;;;;;;;;;12.60;99.90;;;;;;4940522;29;19915;-73
2023/04/29 05:55:49;;;;;;;;;;;12.80;99.90;;;;;;4934466;29;19943;-74
2023/04/29 05:58:15;;;;;;;;;;;13.00;99.90;;;;;;4951347;29;19985;-74
2023/04/29 06:00:42;;;;;;;;;;;13.10;99.90;;;;;;4952606;29;20029;-73
2023/04/29 06:03:09;;;;;;;;;;;13.20;99.90;;;;;;4952524;29;19913;-73
2023/04/29 06:05:35;;;;;;;;;;;13.20;99.90;;;;;;4952616;29;19906;-71
2023/04/29 06:08:01;;;;;;;;;;;13.20;99.90;;;;;;4953149;29;19918;-74
2023/04/29 06:10:27;;;;;;;;;;;13.30;99.90;;;;;;4945113;28;19918;-72
2023/04/29 06:12:52;;;;;;;;;;;13.30;99.90;;;;;;4952712;29;19906;-71
2023/04/29 06:15:18;;;;;;;;;;;13.30;99.90;;;;;;4952992;29;19910;-80
2023/04/29 06:17:43;;;;;;;;;;;13.40;99.90;;;;;;4952105;29;19910;-72
2023/04/29 06:20:09;;;;;;;;;;;13.40;99.90;;;;;;4950430;28;20004;-72
2023/04/29 06:22:35;;;;;;;;;;;13.50;99.90;;;;;;4950689;28;19926;-72
2023/04/29 06:25:00;;;;;;;;;;;13.50;99.90;;;;;;4952692;29;19910;-72
2023/04/29 06:27:27;;;;;;;;;;;13.50;99.90;;;;;;4950609;29;20359;-71
2023/04/29 06:29:52;;;;;;;;;;;13.50;99.90;;;;;;4951587;29;20407;-73
2023/04/29 06:32:18;;;;;;;;;;;13.50;99.90;;;;;;4951793;29;19957;-74
2023/04/29 06:34:44;;;;;;;;;;;13.60;99.90;;;;;;4950658;29;19918;-73
2023/04/29 06:37:10;;;;;;;;;;;13.80;99.90;;;;;;4947242;28;19946;-72
2023/04/29 06:39:35;;;;;;;;;;;13.90;99.90;;;;;;4952080;29;19941;-73
2023/04/29 06:42:00;;;;;;;;;;;14.00;99.90;;;;;;4952511;29;19918;-73
2023/04/29 06:44:26;;;;;;;;;;;14.20;99.90;;;;;;4952289;29;20315;-73
2023/04/29 06:46:52;;;;;;;;;;;14.30;99.90;;;;;;4951897;29;19931;-74
2023/04/29 06:49:17;;;;;;;;;;;14.40;99.90;;;;;;4935192;29;19914;-76
2023/04/29 06:51:43;;;;;;;;;;;14.50;99.90;;;;;;4950875;29;19919;-74
2023/04/29 06:54:08;;;;;;;;;;;14.50;99.90;;;;;;4947442;28;19910;-72
2023/04/29 06:56:34;;;;;;;;;;;14.50;99.90;;;;;;4951672;29;19906;-72
2023/04/29 06:59:00;;;;;;;;;;;14.40;99.90;;;;;;4952117;29;20000;-73
2023/04/29 07:01:25;;;;;;;;;;;14.50;99.90;;;;;;4934346;29;19911;-73
2023/04/29 07:03:51;;;;;;;;;;;14.50;99.90;;;;;;4952136;28;19918;-73
2023/04/29 07:06:16;;;;;;;;;;;14.50;99.90;;;;;;4951452;29;19914;-73
2023/04/29 07:08:42;;;;;;;;;;;14.40;99.90;;;;;;4947653;28;19922;-72
2023/04/29 07:11:07;;;;;;;;;;;14.30;99.90;;;;;;4952354;29;19922;-71
2023/04/29 07:13:33;;;;;;;;;;;14.20;99.90;;;;;;4946243;28;19917;-73
2023/04/29 07:15:59;;;;;;;;;;;14.20;99.90;;;;;;4950737;29;19921;-73
2023/04/29 07:18:28;;;;;;;;;;;14.30;99.90;;;;;;4946417;29;19911;-73
2023/04/29 07:20:56;;;;;;;;;;;14.40;99.90;;;;;;4948100;29;20438;-72
2023/04/29 07:23:22;;;;;;;;;;;14.50;99.90;;;;;;4944127;29;20371;-76
2023/04/29 07:25:47;;;;;;;;;;;14.50;99.90;;;;;;4951434;29;19910;-73
2023/04/29 07:28:12;;;;;;;;;;;14.40;99.90;;;;;;4950977;29;19966;-73
2023/04/29 07:30:38;;;;;;;;;;;14.30;99.90;;;;;;4951060;29;20138;-73
2023/04/29 07:33:03;;;;;;;;;;;14.30;99.90;;;;;;4951709;28;19917;-75
2023/04/29 07:35:29;;;;;;;;;;;14.20;99.90;;;;;;4953106;29;19911;-74
2023/04/29 07:37:55;;;;;;;;;;;14.30;99.90;;;;;;4954807;29;19914;-73
2023/04/29 07:40:20;;;;;;;;;;;14.20;99.90;;;;;;4954742;29;19957;-76
2023/04/29 07:42:46;;;;;;;;;;;14.30;99.90;;;;;;4955411;29;19918;-70
2023/04/29 07:45:12;;;;;;;;;;;14.40;99.90;;;;;;4955408;29;19918;-72
2023/04/29 07:47:38;;;;;;;;;;;14.50;99.90;;;;;;4949601;29;19914;-75
2023/04/29 07:50:04;;;;;;;;;;;14.70;99.90;;;;;;4954824;29;20013;-75
2023/04/29 07:52:30;;;;;;;;;;;14.70;99.90;;;;;;4954524;29;20049;-73
2023/04/29 07:54:55;;;;;;;;;;;14.70;99.90;;;;;;4955797;29;19910;-73
2023/04/29 07:57:21;;;;;;;;;;;14.80;99.90;;;;;;4953842;29;19906;-76
2023/04/29 07:59:51;;;;;;;;;;;15.00;99.90;;;;;;4955040;29;19917;-73
2023/04/29 08:02:16;;;;;;;;;;;15.00;99.90;;;;;;4939454;29;19982;-72
2023/04/29 08:04:42;;;;;;;;;;;15.00;99.90;;;;;;4953770;29;19922;-70
2023/04/29 08:07:08;;;;;;;;;;;15.00;99.90;;;;;;4952136;29;19970;-74
2023/04/29 08:09:33;;;;;;;;;;;15.00;99.90;;;;;;4954894;29;19914;-73
2023/04/29 08:12:00;;;;;;;;;;;15.10;99.90;;;;;;4941027;29;19918;-73
2023/04/29 08:14:26;;;;;;;;;;;15.10;99.90;;;;;;4956610;29;19933;-77
2023/04/29 08:16:51;;;;;;;;;;;15.10;99.90;;;;;;4942973;29;20323;-73
2023/04/29 08:19:16;;;;;;;;;;;15.10;99.90;;;;;;4939193;29;19911;-76
2023/04/29 08:21:42;;;;;;;;;;;15.10;99.90;;;;;;4954757;29;20021;-76
2023/04/29 08:24:07;;;;;;;;;;;15.20;99.90;;;;;;4938701;29;19917;-77
2023/04/29 08:26:33;;;;;;;;;;;15.30;99.90;;;;;;4955491;29;19946;-77
2023/04/29 08:28:59;;;;;;;;;;;15.20;99.90;;;;;;4950372;28;19942;-78
2023/04/29 08:31:24;;;;;;;;;;;15.30;99.90;;;;;;4955816;29;19962;-77
2023/04/29 08:33:51;;;;;;;;;;;15.40;99.90;;;;;;4956221;29;19914;-75
2023/04/29 08:36:16;;;;;;;;;;;15.50;99.90;;;;;;4956018;29;20291;-76
2023/04/29 08:38:42;;;;;;;;;;;15.70;99.90;;;;;;4956689;29;19918;-77
2023/04/29 08:41:11;;;;;;;;;;;15.50;99.90;;;;;;4955946;29;19914;-75
2023/04/29 08:43:36;;;;;;;;;;;15.50;99.90;;;;;;4954968;29;19911;-74
2023/04/29 08:46:03;;;;;;;;;;;15.40;99.90;;;;;;4948762;28;19921;-75
2023/04/29 08:48:29;;;;;;;;;;;15.40;99.90;;;;;;4954503;29;20009;-74
2023/04/29 08:50:55;;;;;;;;;;;15.20;99.90;;;;;;4938474;29;20004;-74
2023/04/29 08:53:21;;;;;;;;;;;15.10;99.90;;;;;;4954280;29;20009;-76
2023/04/29 08:55:46;;;;;;;;;;;14.90;99.90;;;;;;4955764;29;20300;-73
2023/04/29 08:58:13;;;;;;;;;;;14.80;99.90;;;;;;4955284;29;19940;-73
2023/04/29 09:00:39;;;;;;;;;;;14.70;99.90;;;;;;4954512;29;20160;-77
2023/04/29 09:03:22;;;;;;;;;;;14.70;99.90;;;;;;4952685;28;19916;-73
2023/04/29 09:05:51;;;;;;;;;;;14.70;99.90;;;;;;4947537;29;20323;-73
2023/04/29 09:08:17;;;;;;;;;;;14.80;99.90;;;;;;4954641;29;19921;-74
2023/04/29 09:10:43;;;;;;;;;;;14.90;99.90;;;;;;4955412;29;19914;-72
2023/04/29 09:13:08;;;;;;;;;;;15.00;99.90;;;;;;4954643;29;20005;-73
2023/04/29 09:15:39;;;;;;;;;;;15.20;99.90;;;;;;4953454;29;19993;-73
2023/04/29 09:18:04;;;;;;;;;;;15.30;99.90;;;;;;4954681;29;19911;-73
2023/04/29 09:20:30;;;;;;;;;;;15.40;99.90;;;;;;4948695;28;19917;-73
2023/04/29 09:22:57;;;;;;;;;;;15.50;99.90;;;;;;4954480;29;19910;-73
2023/04/29 09:25:22;;;;;;;;;;;15.60;99.90;;;;;;4954330;29;20009;-73
2023/04/29 09:27:48;;;;;;;;;;;15.60;99.90;;;;;;4954834;29;20033;-74
2023/04/29 09:30:15;;;;;;;;;;;15.50;99.90;;;;;;4954988;29;19914;-74
2023/04/29 09:32:41;;;;;;;;;;;15.50;99.90;;;;;;4953350;29;19960;-73
2023/04/29 09:35:36;;;;;;;;;;;15.50;99.90;;;;;;4950305;28;19914;-74
2023/04/29 09:38:07;;;;;;;;;;;15.50;99.90;;;;;;4938358;29;19953;-73
2023/04/29 09:40:33;;;;;;;;;;;15.50;99.90;;;;;;4951560;29;19911;-74
2023/04/29 09:42:59;;;;;;;;;;;15.60;99.90;;;;;;4953537;29;20001;-77
2023/04/29 09:45:36;;;;;;;;;;;15.70;99.90;;;;;;4952711;29;19997;-74
2023/04/29 09:48:07;;;;;;;;;;;15.80;99.90;;;;;;4953440;29;19918;-75
2023/04/29 09:50:33;;;;;;;;;;;15.90;99.90;;;;;;4952457;29;19981;-74
2023/04/29 09:52:59;;;;;;;;;;;16.00;99.90;;;;;;4952955;29;19914;-72
2023/04/29 09:55:25;;;;;;;;;;;16.20;99.90;;;;;;4952733;29;19910;-75
2023/04/29 09:57:51;;;;;;;;;;;16.40;99.90;;;;;;4953426;28;19910;-76
2023/04/29 10:00:17;;;;;;;;;;;16.60;99.90;;;;;;4954128;29;20267;-73
2023/04/29 10:02:45;;;;;;;;;;;16.80;99.90;;;;;;4952572;29;19910;-74
2023/04/29 10:05:12;;;;;;;;;;;16.80;99.90;;;;;;4953572;29;20382;-74
2023/04/29 10:07:38;;;;;;;;;;;16.70;99.90;;;;;;4952356;29;19914;-74
2023/04/29 10:10:05;;;;;;;;;;;16.70;99.90;;;;;;4954077;29;19911;-74
2023/04/29 10:12:32;;;;;;;;;;;16.90;99.90;;;;;;4950218;29;20016;-73
2023/04/29 10:15:00;;;;;;;;;;;17.30;99.90;;;;;;4953711;29;20064;-73
2023/04/29 10:17:29;;;;;;;;;;;17.50;99.90;;;;;;4952304;29;19919;-73
2023/04/29 10:20:01;;;;;;;;;;;17.70;99.90;;;;;;4953918;29;19917;-72
2023/04/29 10:22:35;;;;;;;;;;;17.60;99.90;;;;;;4952078;29;20317;-73
2023/04/29 10:25:02;;;;;;;;;;;17.60;99.90;;;;;;4953586;29;19933;-72
2023/04/29 10:27:28;;;;;;;;;;;17.40;99.90;;;;;;4952233;29;19910;-73
2023/04/29 10:29:53;;;;;;;;;;;17.20;99.90;;;;;;4953153;29;20228;-72
2023/04/29 10:32:20;;;;;;;;;;;17.20;99.90;;;;;;4951741;29;19997;-84
2023/04/29 10:34:47;;;;;;;;;;;17.20;99.90;;;;;;4952704;29;19915;-71
2023/04/29 10:37:13;;;;;;;;;;;17.10;99.90;;;;;;4953121;29;19914;-70
2023/04/29 10:39:42;;;;;;;;;;;17.00;99.90;;;;;;4952135;29;19910;-70
2023/04/29 10:42:25;;;;;;;;;;;17.00;99.90;;;;;;4953018;29;19989;-72
2023/04/29 10:45:09;;;;;;;;;;;17.00;99.90;;;;;;4953445;29;19946;-70
2023/04/29 10:47:35;;;;;;;;;;;17.30;99.90;;;;;;4952205;29;19930;-70
2023/04/29 10:50:03;;;;;;;;;;;17.50;99.90;;;;;;4952878;29;20355;-75
2023/04/29 10:52:28;;;;;;;;;;;17.50;99.90;;;;;;4949571;28;20351;-75
2023/04/29 10:55:03;;;;;;;;;;;17.50;99.90;;;;;;4951066;28;19957;-76
2023/04/29 10:57:28;;;;;;;;;;;17.60;99.90;;;;;;4952413;29;19910;-76
2023/04/29 10:59:55;;;;;;;;;;;17.60;99.90;;;;;;4953384;29;19966;-76
2023/04/29 11:02:20;;;;;;;;;;;17.50;99.90;;;;;;4952392;29;19957;-77
2023/04/29 11:05:05;;;;;;;;;;;17.20;99.90;;;;;;4952632;29;19954;-77
2023/04/29 11:07:30;;;;;;;;;;;17.20;99.90;;;;;;4951864;29;19910;-72
2023/04/29 11:09:56;;;;;;;;;;;17.20;99.90;;;;;;4955451;28;19914;-71
2023/04/29 11:12:22;;;;;;;;;;;17.30;99.90;;;;;;4949026;28;19925;-76
2023/04/29 11:14:50;;;;;;;;;;;17.40;99.90;;;;;;4956294;29;19993;-70
2023/04/29 11:17:18;;;;;;;;;;;17.50;99.90;;;;;;4955318;29;20005;-70
2023/04/29 11:19:45;;;;;;;;;;;17.60;99.90;;;;;;4956248;29;19965;-69
2023/04/29 11:22:10;;;;;;;;;;;17.60;99.90;;;;;;4956121;29;20352;-70
2023/04/29 11:24:36;;;;;;;;;;;17.70;99.90;;;;;;4947653;29;19962;-69
2023/04/29 11:27:03;;;;;;;;;;;17.80;99.90;;;;;;4955716;29;19949;-68
2023/04/29 11:29:30;;;;;;;;;;;17.80;99.90;;;;;;4955180;29;19918;-69
2023/04/29 11:32:00;;;;;;;;;;;17.80;99.90;;;;;;4938694;29;19946;-69
2023/04/29 11:34:26;;;;;;;;;;;17.90;99.90;;;;;;4955581;29;19910;-69
2023/04/29 11:36:52;;;;;;;;;;;17.90;99.90;;;;;;4938630;29;19910;-68
2023/04/29 11:39:17;;;;;;;;;;;18.00;99.90;;;;;;4956028;29;19910;-69
2023/04/29 11:41:43;;;;;;;;;;;18.00;99.90;;;;;;4937512;29;19949;-69
2023/04/29 11:44:10;;;;;;;;;;;18.00;99.90;;;;;;4953666;29;19950;-69
2023/04/29 11:46:36;;;;;;;;;;;18.00;99.90;;;;;;4953888;29;19914;-69
2023/04/29 11:49:02;;;;;;;;;;;18.20;99.90;;;;;;4955999;29;19933;-69
2023/04/29 11:51:27;;;;;;;;;;;18.30;99.90;;;;;;4954938;29;19910;-69
2023/04/29 11:53:53;;;;;;;;;;;18.40;99.90;;;;;;4955968;29;19910;-70
2023/04/29 11:56:24;;;;;;;;;;;18.30;99.90;;;;;;4956022;29;19907;-73
2023/04/29 11:58:55;;;;;;;;;;;18.60;99.90;;;;;;4956701;29;19941;-69
2023/04/29 12:01:21;;;;;;;;;;;;;;;;;;4955640;29;19918;-73
2023/04/29 12:03:48;;;;;;;;;;;20.00;99.90;;;;;;4953915;29;19918;-69
2023/04/29 12:06:14;;;;;;;;;;;20.00;99.90;;;;;;4956034;29;19906;-70
2023/04/29 12:08:39;;;;;;;;;;;19.90;99.90;;;;;;4954723;29;19922;-68
2023/04/29 12:11:05;;;;;;;;;;;19.80;99.90;;;;;;4956248;29;19913;-69
2023/04/29 12:13:32;;;;;;;;;;;19.20;99.90;;;;;;4941480;29;20299;-71
2023/04/29 12:15:58;;;;;;;;;;;18.70;99.90;;;;;;4956054;29;19914;-69
2023/04/29 12:18:23;;;;;;;;;;;18.70;99.90;;;;;;4954799;29;19918;-70
2023/04/29 12:20:53;;;;;;;;;;;18.60;99.90;;;;;;4955402;28;19910;-69
2023/04/29 12:23:22;;;;;;;;;;;18.50;99.90;;;;;;4955264;29;19910;-73
2023/04/29 12:25:58;;;;;;;;;;;18.70;99.90;;;;;;4955814;29;19918;-68
2023/04/29 12:28:24;;;;;;;;;;;18.50;99.90;;;;;;4948619;28;19977;-69
2023/04/29 12:30:50;;;;;;;;;;;18.60;99.90;;;;;;4955601;29;19997;-69
2023/04/29 12:33:23;;;;;;;;;;;18.80;99.90;;;;;;4955238;29;19911;-69
2023/04/29 12:35:53;;;;;;;;;;;19.00;99.90;;;;;;4955914;29;19911;-69
2023/04/29 12:38:21;;;;;;;;;;;18.80;99.90;;;;;;4955084;29;20283;-73
2023/04/29 12:40:47;;;;;;;;;;;18.60;99.90;;;;;;4955248;29;20423;-68
2023/04/29 12:43:13;;;;;;;;;;;18.40;99.90;;;;;;4955071;29;19921;-68
2023/04/29 12:45:39;;;;;;;;;;;18.40;99.90;;;;;;4950987;28;19910;-69
2023/04/29 12:48:05;;;;;;;;;;;18.10;99.90;;;;;;4953277;29;19967;-69
2023/04/29 12:50:34;;;;;;;;;;;17.80;99.90;;;;;;4952656;29;19922;-69
2023/04/29 12:53:01;;;;;;;;;;;17.70;99.90;;;;;;4954752;29;20294;-69
2023/04/29 12:55:27;;;;;;;;;;;18.00;99.90;;;;;;4954036;29;19918;-70
2023/04/29 12:57:52;;;;;;;;;;;18.50;99.90;;;;;;4954435;29;19921;-69
2023/04/29 13:00:19;;;;;;;;;;;19.00;99.90;;;;;;4937268;29;19910;-73
2023/04/29 13:02:45;;;;;;;;;;;19.30;99.90;;;;;;4953776;29;19933;-69
2023/04/29 13:05:11;;;;;;;;;;;20.10;99.90;;;;;;4954099;28;20379;-69
2023/04/29 13:07:37;;;;;;;;;;;;;;;;;;4953404;29;19917;-69
2023/04/29 13:10:05;;;;;;;;;;;20.00;99.90;;;;;;4954675;29;20034;-69
2023/04/29 13:12:33;;;;;;;;;;;20.00;99.90;;;;;;4952930;29;19918;-68
2023/04/29 13:14:59;;;;;;;;;;;20.00;99.90;;;;;;4954261;29;20654;-69
2023/04/29 13:17:24;;;;;;;;;;;19.80;99.90;;;;;;4953167;29;19910;-70
2023/04/29 13:19:50;;;;;;;;;;;19.70;99.90;;;;;;4954428;29;20378;-69
2023/04/29 13:22:15;;;;;;;;;;;19.40;99.90;;;;;;4953767;29;19918;-69
2023/04/29 13:24:41;;;;;;;;;;;19.20;99.90;;;;;;4953540;29;20471;-71
2023/04/29 13:27:07;;;;;;;;;;;19.40;99.90;;;;;;4953761;29;19910;-68
2023/04/29 13:29:32;;;;;;;;;;;19.70;99.90;;;;;;4953467;29;19918;-69
2023/04/29 13:31:58;;;;;;;;;;;19.60;99.90;;;;;;4952309;28;19914;-69
2023/04/29 13:34:23;;;;;;;;;;;19.20;99.90;;;;;;4935964;29;19910;-69
2023/04/29 13:36:49;;;;;;;;;;;19.10;99.90;;;;;;4953700;29;19993;-68
2023/04/29 13:39:15;;;;;;;;;;;19.10;99.90;;;;;;4951891;29;20423;-68
2023/04/29 13:41:40;;;;;;;;;;;18.80;99.90;;;;;;4952449;29;19914;-68
2023/04/29 13:44:06;;;;;;;;;;;18.60;99.90;;;;;;4953648;29;19917;-69
2023/04/29 13:46:31;;;;;;;;;;;18.40;99.90;;;;;;4952842;29;19954;-69
2023/04/29 13:48:57;;;;;;;;;;;18.40;99.90;;;;;;4954211;29;19973;-70
2023/04/29 13:51:23;;;;;;;;;;;18.50;99.90;;;;;;4952941;29;19919;-74
2023/04/29 13:53:48;;;;;;;;;;;18.00;99.90;;;;;;4954461;29;19914;-69
2023/04/29 13:56:15;;;;;;;;;;;18.20;99.90;;;;;;4954586;29;19906;-69
2023/04/29 13:58:40;;;;;;;;;;;18.50;99.90;;;;;;4953296;29;19961;-69
2023/04/29 14:01:06;;;;;;;;;;;18.50;99.90;;;;;;4948633;28;19911;-70
2023/04/29 14:03:31;;;;;;;;;;;18.70;99.90;;;;;;4952997;29;19922;-71
2023/04/29 14:05:57;;;;;;;;;;;18.40;99.90;;;;;;4953422;28;19907;-70
2023/04/29 14:08:22;;;;;;;;;;;17.80;99.90;;;;;;4948848;28;20429;-74
2023/04/29 14:10:48;;;;;;;;;;;18.00;99.90;;;;;;4954397;28;20024;-70
2023/04/29 14:13:13;;;;;;;;;;;18.10;99.90;;;;;;4954031;29;19911;-71
2023/04/29 14:15:39;;;;;;;;;;;18.10;99.90;;;;;;4953001;29;19954;-70
2023/04/29 14:18:07;;;;;;;;;;;18.50;99.90;;;;;;4953382;29;19910;-69